Time;durP1;ratioP1;P1;durP2;ratioP2;P2;SDS_P1;SDS_P2;PMS_P1;PMS_P2;Temp;Humidity;BMP_temperature;BMP_pressure;BME280_temperature;BME280_humidity;BME280_pressure;Samples;Min_cycle;Max_cycle;Signal;HPM_P1;HPM_P2
2021/01/27 00:00:12;;;;;;;34.20;21.87;;;;;;;0.35;83.11;99624.09;1648275;85;25799;-88
2021/01/27 00:02:39;;;;;;;37.23;22.80;;;;;;;0.35;83.21;99619.77;1649035;86;25872;-87
2021/01/27 00:05:09;;;;;;;37.55;22.58;;;;;;;0.38;83.21;99623.85;1647508;85;25850;-88
2021/01/27 00:07:35;;;;;;;35.13;20.10;;;;;;;;;;1648062;86;26081;-87
2021/01/27 00:10:03;;;;;;;36.47;21.90;;;;;;;0.38;83.47;99625.14;1648806;85;25882;-88
2021/01/27 00:12:29;;;;;;;39.25;24.10;;;;;;;0.36;83.48;99613.70;1649091;86;25777;-88
2021/01/27 00:14:55;;;;;;;39.55;23.18;;;;;;;0.37;83.50;99617.09;1648028;85;25818;-87
2021/01/27 00:17:22;;;;;;;32.20;20.23;;;;;;;0.39;83.55;99620.36;1648618;85;25900;-87
2021/01/27 00:19:48;;;;;;;36.63;22.27;;;;;;;0.40;83.70;99628.41;1647697;85;25895;-88
2021/01/27 00:22:14;;;;;;;38.08;23.20;;;;;;;0.40;83.72;99616.84;1641313;85;25893;-87
2021/01/27 00:24:40;;;;;;;34.63;20.23;;;;;;;0.41;83.63;99623.17;1642336;85;25762;-87
2021/01/27 00:27:07;;;;;;;34.13;22.13;;;;;;;0.41;83.71;99619.78;1642291;86;25891;-87
2021/01/27 00:29:33;;;;;;;37.90;23.42;;;;;;;0.44;83.66;99624.69;1642940;85;26302;-87
2021/01/27 00:31:59;;;;;;;43.42;22.80;;;;;;;0.45;83.71;99625.02;1644362;85;26001;-88
2021/01/27 00:34:26;;;;;;;41.58;24.40;;;;;;;0.46;83.75;99621.98;1642780;85;25866;-87
2021/01/27 00:36:52;;;;;;;40.80;23.22;;;;;;;0.46;83.76;99624.55;1641751;86;25922;-87
2021/01/27 00:39:19;;;;;;;43.40;26.55;;;;;;;0.44;83.84;99616.97;1640896;85;25640;-87
2021/01/27 00:41:45;;;;;;;38.02;24.65;;;;;;;0.42;83.82;99614.51;1642707;85;26024;-86
2021/01/27 00:44:11;;;;;;;35.80;21.73;;;;;;;0.42;83.86;99617.55;1642811;85;25851;-87
2021/01/27 00:46:38;;;;;;;38.67;23.55;;;;;;;0.44;84.10;99618.26;1642696;85;25861;-87
2021/01/27 00:49:04;;;;;;;33.63;22.90;;;;;;;0.40;84.10;99616.38;1643148;85;25896;-87
2021/01/27 00:51:31;;;;;;;39.98;23.75;;;;;;;0.40;84.26;99621.52;1642904;85;26023;-88
2021/01/27 00:53:58;;;;;;;38.85;22.87;;;;;;;0.40;84.16;99616.38;1642890;85;26000;-88
2021/01/27 00:56:24;;;;;;;36.30;21.93;;;;;;;0.39;84.42;99608.80;1622647;87;26628;-87
2021/01/27 00:58:52;;;;;;;36.90;23.27;;;;;;;0.40;84.35;99611.23;1623632;85;26488;-88
2021/01/27 01:01:21;;;;;;;32.88;19.98;;;;;;;0.41;84.33;99608.22;1622623;85;46584;-88
2021/01/27 01:03:47;;;;;;;35.35;21.97;;;;;;;0.41;84.54;99609.50;1642479;86;26559;-88
2021/01/27 01:06:14;;;;;;;35.83;22.02;;;;;;;0.38;84.51;99600.27;1642502;85;25797;-87
2021/01/27 01:08:40;;;;;;;41.33;21.37;;;;;;;0.39;84.50;99606.23;1643348;85;25882;-87
2021/01/27 01:11:06;;;;;;;36.68;23.75;;;;;;;0.41;84.59;99609.50;1642226;85;25945;-88
2021/01/27 01:13:33;;;;;;;36.65;22.37;;;;;;;0.42;84.48;99609.38;1642624;85;25887;-87
2021/01/27 01:16:00;;;;;;;42.58;25.20;;;;;;;0.46;84.56;99610.41;1643744;85;25818;-88
2021/01/27 01:18:26;;;;;;;35.00;21.82;;;;;;;0.45;84.54;99608.31;1631122;85;26534;-88
2021/01/27 01:20:53;;;;;;;37.98;22.52;;;;;;;0.44;84.57;99604.94;1646235;85;25759;-88
2021/01/27 01:23:22;;;;;;;38.50;23.90;;;;;;;0.46;84.63;99606.55;1656991;84;26409;-89
2021/01/27 01:25:49;;;;;;;39.45;24.07;;;;;;;0.44;84.63;99605.41;1658212;84;25914;-89
2021/01/27 01:28:17;;;;;;;40.35;25.05;;;;;;;0.44;84.67;99613.93;1658268;84;25923;-88
2021/01/27 01:30:47;;;;;;;36.55;22.70;;;;;;;0.47;84.60;99619.78;1662597;84;25864;-88
2021/01/27 01:33:25;;;;;;;35.43;22.50;;;;;;;0.44;84.69;99607.98;1659530;84;25927;-87
2021/01/27 01:35:51;;;;;;;31.85;20.48;;;;;;;0.44;84.77;99615.69;1658217;84;26487;-88
2021/01/27 01:38:17;;;;;;;32.50;19.45;;;;;;;0.46;84.80;99615.08;1657641;84;25769;-88
2021/01/27 01:40:57;;;;;;;36.60;21.25;;;;;;;0.46;84.85;99612.98;1658681;84;26366;-88
2021/01/27 01:43:36;;;;;;;33.33;21.95;;;;;;;0.47;84.72;99614.64;1660940;84;26298;-88
2021/01/27 01:46:17;;;;;;;35.93;23.17;;;;;;;0.47;84.73;99615.92;1657893;84;25748;-88
2021/01/27 01:48:54;;;;;;;;;;;;;;;0.46;84.79;99616.36;1662603;84;25812;-88
2021/01/27 01:51:46;;;;;;;37.75;22.90;;;;;;;0.43;84.87;99606.33;1660046;84;26547;-88
2021/01/27 01:54:29;;;;;;;39.18;23.52;;;;;;;0.43;84.90;99612.28;1657572;84;26682;-88
2021/01/27 01:57:01;;;;;;;36.23;21.00;;;;;;;0.45;84.97;99618.59;1656863;84;26479;-87
2021/01/27 01:59:31;;;;;;;42.00;26.12;;;;;;;0.44;85.11;99607.50;1658467;84;25769;-86
2021/01/27 02:02:03;;;;;;;39.58;22.45;;;;;;;0.44;85.07;99605.41;1658434;84;26523;-88
2021/01/27 02:04:47;;;;;;;37.73;22.80;;;;;;;0.46;85.12;99616.84;1657963;84;26385;-88
2021/01/27 02:07:13;;;;;;;34.05;22.60;;;;;;;0.46;85.12;99607.37;1657812;84;25838;-87
2021/01/27 02:09:39;;;;;;;36.93;22.45;;;;;;;0.46;85.20;99609.94;1658532;84;26614;-86
2021/01/27 02:12:30;;;;;;;39.13;22.80;;;;;;;0.46;85.26;99621.50;1657119;84;26509;-87
2021/01/27 02:15:04;;;;;;;37.00;21.10;;;;;;;0.46;85.36;99611.70;1659678;84;25782;-88
2021/01/27 02:17:57;;;;;;;37.88;24.00;;;;;;;0.44;85.47;99614.41;1648385;84;25748;-88
2021/01/27 02:20:35;;;;;;;38.63;24.35;;;;;;;0.44;85.37;99613.12;1659512;84;25840;-89
2021/01/27 02:23:35;;;;;;;35.40;25.00;;;;;;;0.45;85.34;99604.45;1657130;84;25921;-88
2021/01/27 02:26:31;;;;;;;35.90;21.82;;;;;;;0.45;85.33;99610.89;1658190;84;25820;-88
2021/01/27 02:29:33;;;;;;;36.05;21.90;;;;;;;0.46;85.30;99615.08;1644400;85;26545;-89
2021/01/27 02:32:42;;;;;;;31.50;20.32;;;;;;;0.48;85.28;99610.64;1658005;84;26335;-88
2021/01/27 02:35:26;;;;;;;32.87;20.20;;;;;;;0.49;85.29;99622.58;1584793;89;26057;-88
2021/01/27 02:38:12;;;;;;;31.90;22.02;;;;;;;0.51;85.26;99622.45;1589144;88;26397;-89
2021/01/27 02:40:56;;;;;;;31.62;21.20;;;;;;;0.51;85.13;99616.02;1580996;89;25966;-88
2021/01/27 02:43:41;;;;;;;31.62;19.00;;;;;;;0.53;85.07;99620.11;1582725;89;26560;-87
2021/01/27 02:46:25;;;;;;;31.50;19.67;;;;;;;0.54;85.01;99621.73;1583146;89;25772;-88
2021/01/27 02:49:23;;;;;;;31.37;19.52;;;;;;;0.58;84.97;99619.76;1582088;88;26156;-88
2021/01/27 02:51:54;;;;;;;31.50;18.48;;;;;;;0.59;84.90;99616.23;1557815;90;25514;-88
2021/01/27 02:54:43;;;;;;;28.35;17.62;;;;;;;0.58;84.81;99615.43;1582023;89;25890;-89
2021/01/27 02:57:18;;;;;;;26.77;17.10;;;;;;;0.58;84.72;99616.72;1581219;89;26494;-89
2021/01/27 03:00:11;;;;;;;28.75;17.95;;;;;;;0.60;84.62;99619.15;1580070;89;26483;-90
2021/01/27 03:02:45;;;;;;;26.35;17.90;;;;;;;0.60;84.55;99616.13;1580239;89;26813;-87
2021/01/27 03:05:26;;;;;;;26.68;16.60;;;;;;;0.61;84.43;99622.09;1582108;89;26667;-88
2021/01/27 03:08:00;;;;;;;28.92;18.05;;;;;;;0.60;84.40;99613.56;1583380;89;25693;-89
2021/01/27 03:10:57;;;;;;;31.00;18.90;;;;;;;0.61;84.46;99620.80;1598709;88;25755;-87
2021/01/27 03:13:24;;;;;;;28.40;17.00;;;;;;;0.62;84.29;99622.42;1653677;84;25742;-88
2021/01/27 03:15:52;;;;;;;30.72;17.67;;;;;;;0.64;84.26;99625.23;1660408;84;25460;-88
2021/01/27 03:18:26;;;;;;;28.17;17.15;;;;;;;0.66;84.22;99623.36;1657875;84;26430;-88
2021/01/27 03:20:58;;;;;;;28.20;17.20;;;;;;;0.64;83.96;99629.08;1657349;84;25741;-88
2021/01/27 03:23:39;;;;;;;27.22;15.45;;;;;;;0.62;83.95;99623.71;1644830;85;25805;-88
2021/01/27 03:26:28;;;;;;;21.70;13.78;;;;;;;0.62;83.96;99622.42;1576829;89;25939;-87
2021/01/27 03:28:59;;;;;;;24.45;15.00;;;;;;;0.62;83.94;99623.23;1574083;89;25820;-88
2021/01/27 03:31:26;;;;;;;24.95;15.65;;;;;;;0.63;83.88;99629.22;1575911;89;25881;-87
2021/01/27 03:34:04;;;;;;;26.60;15.18;;;;;;;0.64;83.86;99634.23;1575732;89;26549;-86
2021/01/27 03:36:35;;;;;;;28.67;15.83;;;;;;;0.68;83.77;99639.12;1576925;89;25774;-87
2021/01/27 03:39:03;;;;;;;23.15;14.47;;;;;;;0.66;83.50;99639.27;1577270;89;26502;-88
2021/01/27 03:41:36;;;;;;;25.80;14.83;;;;;;;0.65;83.49;99639.73;1577377;89;26093;-87
2021/01/27 03:44:11;;;;;;;27.05;15.83;;;;;;;0.66;83.56;99634.13;1574806;89;25906;-88
2021/01/27 03:46:48;;;;;;;26.55;15.50;;;;;;;0.68;83.31;99645.08;1576426;89;26036;-88
2021/01/27 03:49:28;;;;;;;26.55;15.23;;;;;;;0.68;83.27;99642.52;1574510;89;25941;-89
2021/01/27 03:52:12;;;;;;;29.35;15.18;;;;;;;0.68;83.12;99648.94;1580826;89;26299;-89
2021/01/27 03:55:00;;;;;;;24.10;13.35;;;;;;;0.68;83.01;99648.13;1537508;91;26150;-88
2021/01/27 03:57:34;;;;;;;28.05;14.83;;;;;;;0.66;82.88;99645.70;1533559;91;26023;-88
2021/01/27 04:00:01;;;;;;;28.10;14.07;;;;;;;0.66;82.87;99650.84;1533773;91;26194;-88
2021/01/27 04:02:27;;;;;;;25.05;14.55;;;;;;;0.66;83.02;99647.79;1547133;88;26030;-88
2021/01/27 04:04:53;;;;;;;21.80;12.70;;;;;;;0.68;82.92;99652.80;1599100;87;25896;-88
2021/01/27 04:07:19;;;;;;;21.50;12.47;;;;;;;0.68;82.78;99651.52;1599022;87;25889;-87
2021/01/27 04:09:46;;;;;;;21.12;13.88;;;;;;;0.68;82.71;99660.98;1600558;88;25929;-87
2021/01/27 04:12:12;;;;;;;21.37;12.80;;;;;;;0.67;82.72;99651.17;1598890;87;25410;-87
2021/01/27 04:14:38;;;;;;;23.87;12.35;;;;;;;0.66;82.66;99648.27;1600266;88;26002;-87
2021/01/27 04:17:29;;;;;;;18.48;12.43;;;;;;;0.68;82.73;99648.94;1602441;88;25724;-87
2021/01/27 04:19:57;;;;;;;25.35;14.43;;;;;;;0.67;82.47;99646.03;1599808;87;26136;-87
2021/01/27 04:22:24;;;;;;;24.63;13.53;;;;;;;0.63;82.52;99653.17;1598755;87;25411;-87
2021/01/27 04:24:51;;;;;;;18.45;11.22;;;;;;;0.62;82.61;99652.00;1601906;88;25993;-87
2021/01/27 04:27:17;;;;;;;22.62;12.73;;;;;;;0.62;82.63;99649.42;1600922;88;25798;-87
2021/01/27 04:29:44;;;;;;;18.27;12.40;;;;;;;0.59;82.55;99640.19;1598581;88;25838;-87
2021/01/27 04:32:10;;;;;;;17.70;11.48;;;;;;;0.58;82.65;99646.75;1624845;85;25830;-87
2021/01/27 04:34:36;;;;;;;17.65;10.98;;;;;;;0.59;82.76;99644.05;1642694;85;26415;-87
2021/01/27 04:37:04;;;;;;;16.37;10.60;;;;;;;0.61;82.72;99646.52;1641389;85;25785;-88
2021/01/27 04:39:30;;;;;;;13.65;9.93;;;;;;;0.60;82.73;99645.70;1622696;85;26519;-87
2021/01/27 04:41:57;;;;;;;20.00;11.25;;;;;;;0.60;82.74;99642.29;1643861;85;26607;-87
2021/01/27 04:44:24;;;;;;;16.70;10.70;;;;;;;0.60;82.82;99648.72;1643316;85;25870;-88
2021/01/27 04:47:17;;;;;;;19.70;10.90;;;;;;;0.59;82.62;99652.23;1623591;86;25877;-87
2021/01/27 04:49:54;;;;;;;16.02;10.50;;;;;;;0.58;82.71;99645.00;1617710;87;25995;-87
2021/01/27 04:52:42;;;;;;;15.28;9.08;;;;;;;0.56;82.71;99643.00;1617349;87;25945;-86
2021/01/27 04:55:33;;;;;;;16.73;11.25;;;;;;;0.57;82.64;99647.23;1616947;87;25828;-88
2021/01/27 04:58:16;;;;;;;17.20;10.23;;;;;;;0.55;82.54;99649.56;1617817;87;25827;-88
2021/01/27 05:01:08;;;;;;;16.52;9.93;;;;;;;0.55;82.66;99646.52;1618417;87;25801;-87
2021/01/27 05:04:10;;;;;;;14.47;9.05;;;;;;;0.56;82.55;99650.72;1614529;87;25939;-87
2021/01/27 05:06:44;;;;;;;15.88;9.55;;;;;;;0.54;82.39;99654.34;1618161;87;25801;-86
2021/01/27 05:09:19;;;;;;;15.18;9.68;;;;;;;0.55;82.63;99657.28;1617157;87;26522;-88
2021/01/27 05:11:45;;;;;;;13.08;8.08;;;;;;;0.53;82.60;99648.39;1617300;87;25881;-88
2021/01/27 05:14:15;;;;;;;13.38;8.23;;;;;;;0.53;82.48;99652.24;1596389;88;25814;-87
2021/01/27 05:16:42;;;;;;;13.90;8.03;;;;;;;0.52;82.42;99661.34;1617127;87;25870;-87
2021/01/27 05:19:08;;;;;;;13.90;8.78;;;;;;;0.52;82.35;99660.06;1618308;87;25725;-88
2021/01/27 05:21:45;;;;;;;17.17;9.38;;;;;;;0.49;82.37;99649.58;1618838;87;25958;-87
2021/01/27 05:24:13;;;;;;;14.28;8.05;;;;;;;0.50;82.34;99658.91;1627447;86;25836;-88
2021/01/27 05:26:57;;;;;;;11.83;7.97;;;;;;;0.51;82.24;99655.39;1643592;84;25973;-87
2021/01/27 05:29:40;;;;;;;11.68;7.33;;;;;;;0.53;82.08;99651.43;1659045;84;25805;-88
2021/01/27 05:32:15;;;;;;;12.35;7.42;;;;;;;0.52;81.81;99663.92;1658734;84;26415;-88
2021/01/27 05:34:48;;;;;;;12.28;7.62;;;;;;;0.51;81.88;99663.58;1658230;84;25652;-88
2021/01/27 05:37:34;;;;;;;12.70;7.78;;;;;;;0.51;81.77;99658.44;1659549;84;25921;-87
2021/01/27 05:40:18;;;;;;;12.73;8.55;;;;;;;0.52;81.61;99664.76;1658160;84;25839;-87
2021/01/27 05:42:45;;;;;;;15.40;8.23;;;;;;;0.50;81.50;99664.05;1658721;84;25871;-88
2021/01/27 05:45:34;;;;;;;12.93;7.10;;;;;;;0.52;81.38;99659.62;1654221;84;25989;-88
2021/01/27 05:48:32;;;;;;;12.28;6.72;;;;;;;0.51;81.03;99659.72;1633485;84;25835;-88
2021/01/27 05:51:14;;;;;;;12.75;6.70;;;;;;;0.51;81.04;99662.30;1657643;84;25746;-88
2021/01/27 05:53:41;;;;;;;12.37;5.95;;;;;;;0.52;80.90;99666.05;1658834;84;25604;-88
2021/01/27 05:56:22;;;;;;;11.08;6.70;;;;;;;0.52;80.92;99665.20;1658136;84;25887;-86
2021/01/27 05:59:02;;;;;;;12.70;5.85;;;;;;;0.54;80.79;99668.48;1657934;84;25950;-88
2021/01/27 06:01:43;;;;;;;10.23;5.58;;;;;;;0.53;80.69;99670.23;1657775;84;29121;-87
2021/01/27 06:04:20;;;;;;;11.48;6.47;;;;;;;0.53;80.35;99671.52;1657515;84;26445;-88
2021/01/27 06:06:52;;;;;;;11.53;6.80;;;;;;;0.53;80.51;99670.72;1657811;84;25887;-87
2021/01/27 06:09:43;;;;;;;11.00;5.45;;;;;;;0.51;80.56;99664.39;1656725;84;25996;-87
2021/01/27 06:12:24;;;;;;;14.65;6.33;;;;;;;0.51;80.19;99669.53;1657225;84;25876;-86
2021/01/27 06:15:08;;;;;;;8.43;5.70;;;;;;;0.51;80.06;99674.67;1657400;84;26504;-87
2021/01/27 06:17:45;;;;;;;11.73;6.30;;;;;;;0.52;79.98;99678.05;1658540;84;25884;-88
2021/01/27 06:20:23;;;;;;;10.48;6.33;;;;;;;0.51;80.11;99670.81;1654532;84;26044;-88
2021/01/27 06:23:18;;;;;;;12.45;6.70;;;;;;;0.51;80.20;99672.58;1656010;84;25939;-88
2021/01/27 06:26:10;;;;;;;10.32;5.97;;;;;;;0.51;79.84;99673.39;1659017;84;25903;-87
2021/01/27 06:28:51;;;;;;;11.65;5.80;;;;;;;0.52;79.93;99676.33;1658260;84;25775;-87
2021/01/27 06:31:47;;;;;;;11.57;6.20;;;;;;;0.53;79.59;99684.38;1659206;84;25956;-88
2021/01/27 06:34:35;;;;;;;13.40;5.67;;;;;;;0.55;79.53;99694.56;1657824;84;25801;-87
2021/01/27 06:37:24;;;;;;;7.10;4.65;;;;;;;0.56;79.40;99696.19;1660290;84;25901;-87
2021/01/27 06:40:16;;;;;;;11.55;6.42;;;;;;;0.55;79.11;99700.52;1658431;84;26079;-87
2021/01/27 06:43:18;;;;;;;9.03;4.87;;;;;;;0.56;79.23;99707.28;1659639;84;26270;-86
2021/01/27 06:45:53;;;;;;;10.68;5.80;;;;;;;0.55;78.91;99704.37;1659445;84;26369;-86
2021/01/27 06:48:27;;;;;;;8.68;5.87;;;;;;;0.57;78.45;99699.09;1658618;84;25882;-87
2021/01/27 06:51:16;;;;;;;9.38;5.33;;;;;;;0.58;78.71;99703.32;1637800;84;26536;-87
2021/01/27 06:54:10;;;;;;;9.28;5.47;;;;;;;0.57;78.44;99699.94;1658863;84;25458;-87
2021/01/27 06:57:15;;;;;;;10.45;6.10;;;;;;;0.60;78.45;99704.00;1658681;84;26365;-87
2021/01/27 07:00:20;;;;;;;9.03;5.10;;;;;;;0.61;78.58;99705.18;1635608;84;25891;-87
2021/01/27 07:03:07;;;;;;;11.25;6.28;;;;;;;0.62;78.32;99711.95;1657799;84;25810;-87
2021/01/27 07:06:11;;;;;;;12.68;6.72;;;;;;;0.60;78.51;99706.13;1619443;84;26422;-88
2021/01/27 07:08:52;;;;;;;12.37;5.92;;;;;;;0.62;78.39;99716.28;1658200;84;26565;-87
2021/01/27 07:11:43;;;;;;;11.70;6.40;;;;;;;0.62;78.56;99717.09;1658137;84;27244;-87
2021/01/27 07:14:30;;;;;;;12.68;6.80;;;;;;;0.62;78.40;99713.23;1661384;84;25846;-86
2021/01/27 07:17:04;;;;;;;9.98;5.75;;;;;;;0.63;78.76;99715.36;1652946;84;26402;-86
2021/01/27 07:19:51;;;;;;;13.10;5.83;;;;;;;0.63;78.55;99712.79;1659713;84;25770;-86
2021/01/27 07:22:22;;;;;;;9.20;5.83;;;;;;;0.63;78.33;99721.79;1658225;84;25762;-87
2021/01/27 07:25:23;;;;;;;7.75;5.37;;;;;;;0.64;78.64;99721.66;1645125;84;25690;-87
2021/01/27 07:28:06;;;;;;;11.08;5.67;;;;;;;0.66;78.60;99731.36;1643359;85;26426;-87
2021/01/27 07:30:56;;;;;;;9.48;5.17;;;;;;;0.66;78.31;99727.51;1642169;85;25816;-87
2021/01/27 07:33:31;;;;;;;13.08;6.83;;;;;;;0.63;78.01;99717.46;1640977;85;25950;-87
2021/01/27 07:36:44;;;;;;;15.18;8.30;;;;;;;0.65;78.38;99730.19;1642634;85;25812;-88
2021/01/27 07:39:40;;;;;;;10.00;5.40;;;;;;;0.64;77.74;99724.23;1643322;85;26334;-88
2021/01/27 07:42:32;;;;;;;13.25;7.35;;;;;;;0.64;77.83;99724.23;1644083;85;25934;-87
2021/01/27 07:45:07;;;;;;;14.35;7.47;;;;;;;0.64;77.95;99724.23;1643524;85;25908;-86
2021/01/27 07:48:00;;;;;;;9.25;6.08;;;;;;;0.63;77.89;99716.65;1643349;85;26471;-87
2021/01/27 07:50:26;;;;;;;11.40;5.95;;;;;;;0.64;77.79;99722.94;1589442;88;25985;-87
2021/01/27 07:53:22;;;;;;;8.75;5.55;;;;;;;0.64;77.90;99725.52;1590944;88;25790;-86
2021/01/27 07:56:11;;;;;;;13.00;6.87;;;;;;;0.64;78.19;99730.66;1591674;87;26142;-86
2021/01/27 07:59:05;;;;;;;11.10;5.12;;;;;;;0.62;78.40;99726.56;1590370;87;26031;-87
2021/01/27 08:01:57;;;;;;;10.30;6.30;;;;;;;0.60;78.72;99732.28;1589742;88;25995;-86
2021/01/27 08:04:45;;;;;;;13.78;7.35;;;;;;;0.57;79.01;99737.66;1593202;88;25529;-87
2021/01/27 08:07:32;;;;;;;16.57;8.25;;;;;;;0.53;79.34;99737.09;1591282;88;26040;-87
2021/01/27 08:10:26;;;;;;;13.32;7.08;;;;;;;0.53;79.69;99742.70;1591047;88;25992;-87
2021/01/27 08:12:56;;;;;;;16.62;9.78;;;;;;;0.49;80.24;99744.69;1591322;88;26210;-86
2021/01/27 08:15:31;;;;;;;16.52;9.43;;;;;;;0.47;80.32;99741.41;1593427;88;25605;-87
2021/01/27 08:18:03;;;;;;;19.45;9.38;;;;;;;0.46;80.67;99750.04;1591445;88;25969;-86
2021/01/27 08:20:42;;;;;;;15.30;9.60;;;;;;;0.43;80.72;99748.98;1591539;88;25865;-87
2021/01/27 08:23:23;;;;;;;19.05;10.68;;;;;;;0.42;81.14;99753.79;1593518;87;26848;-87
2021/01/27 08:26:02;;;;;;;18.32;10.40;;;;;;;0.40;81.14;99757.75;1611079;87;25695;-87
2021/01/27 08:28:43;;;;;;;33.38;14.63;;;;;;;0.41;81.29;99753.45;1652161;84;25670;-87
2021/01/27 08:31:18;;;;;;;33.55;16.25;;;;;;;0.40;81.31;99761.60;1662277;84;25852;-88
2021/01/27 08:33:55;;;;;;;19.35;11.20;;;;;;;0.38;81.37;99761.36;1661197;84;25897;-88
2021/01/27 08:36:32;;;;;;;15.72;9.93;;;;;;;0.38;81.49;99760.08;1660352;84;25810;-86
2021/01/27 08:39:07;;;;;;;15.32;8.50;;;;;;;0.36;81.45;99762.78;1661628;84;26451;-87
2021/01/27 08:42:00;;;;;;;14.95;9.73;;;;;;;0.36;81.46;99760.69;1658410;84;26583;-88
2021/01/27 08:44:36;;;;;;;16.02;9.60;;;;;;;0.38;81.52;99771.20;1660008;84;25851;-88
2021/01/27 08:47:37;;;;;;;18.35;10.63;;;;;;;0.40;81.49;99771.88;1660925;84;25689;-87
2021/01/27 08:50:10;;;;;;;19.75;10.28;;;;;;;0.44;81.51;99767.36;1661362;84;25937;-88
2021/01/27 08:52:40;;;;;;;28.80;13.83;;;;;;;0.46;81.31;99772.36;1639517;84;25992;-87
2021/01/27 08:55:35;;;;;;;29.63;14.65;;;;;;;0.43;81.31;99767.80;1636319;86;26007;-87
2021/01/27 08:58:38;;;;;;;19.50;10.72;;;;;;;0.47;81.25;99767.59;1662345;84;25965;-88
2021/01/27 09:01:13;;;;;;;16.30;9.50;;;;;;;0.49;80.96;99768.27;1663095;84;26014;-88
2021/01/27 09:03:50;;;;;;;15.75;9.53;;;;;;;0.48;80.72;99771.31;1662262;84;26077;-86
2021/01/27 09:06:34;;;;;;;14.10;7.87;;;;;;;0.50;80.57;99774.59;1658725;84;25717;-86
2021/01/27 09:09:24;;;;;;;14.15;7.00;;;;;;;0.53;80.66;99771.80;1661460;84;25414;-86
2021/01/27 09:12:01;;;;;;;12.37;7.78;;;;;;;0.57;80.25;99781.38;1660895;84;25752;-87
2021/01/27 09:14:28;;;;;;;13.28;7.05;;;;;;;0.56;79.82;99782.31;1662917;84;25680;-86
2021/01/27 09:16:56;;;;;;;13.72;6.80;;;;;;;0.56;79.79;99780.56;1662127;84;25568;-86
2021/01/27 09:19:28;;;;;;;12.18;5.97;;;;;;;0.58;79.70;99776.12;1661128;84;26467;-86
2021/01/27 09:22:14;;;;;;;7.90;4.90;;;;;;;0.61;79.60;99775.89;1662230;84;25670;-87
2021/01/27 09:24:48;;;;;;;9.48;5.83;;;;;;;0.63;79.01;99775.79;1636052;84;25401;-86
2021/01/27 09:27:22;;;;;;;14.98;6.95;;;;;;;0.64;78.79;99787.23;1645098;85;25760;-87
2021/01/27 09:29:59;;;;;;;12.93;6.92;;;;;;;0.68;79.17;99780.56;1644986;85;25731;-87
2021/01/27 09:32:27;;;;;;;11.25;6.90;;;;;;;0.71;79.40;99784.19;1645218;85;25756;-86
2021/01/27 09:34:54;;;;;;;9.98;5.80;;;;;;;0.75;79.42;99786.89;1645326;85;25822;-87
2021/01/27 09:37:24;;;;;;;13.68;7.10;;;;;;;0.78;79.21;99792.61;1644975;85;26384;-87
2021/01/27 09:40:35;;;;;;;14.68;7.40;;;;;;;0.80;79.21;99783.03;1623723;85;25751;-88
2021/01/27 09:43:05;;;;;;;13.08;6.90;;;;;;;0.81;79.21;99787.23;1643112;85;25772;-86
2021/01/27 09:45:32;;;;;;;;;;;;;;;0.82;79.26;99794.03;1645098;85;25870;-87
2021/01/27 09:48:00;;;;;;;11.53;6.78;;;;;;;0.82;79.03;99795.80;1644482;85;25990;-87
2021/01/27 09:50:29;;;;;;;11.45;6.62;;;;;;;0.79;78.94;99794.27;1645100;85;25886;-87
2021/01/27 09:52:59;;;;;;;18.25;8.48;;;;;;;0.79;79.20;99792.14;1644364;85;25865;-86
2021/01/27 09:55:27;;;;;;;16.42;8.98;;;;;;;0.79;79.04;99794.71;1647435;85;35272;-87
2021/01/27 09:57:55;;;;;;;20.97;9.65;;;;;;;0.76;78.79;99791.91;1645413;85;25765;-87
2021/01/27 10:00:37;;;;;;;25.00;11.65;;;;;;;0.76;79.06;99789.80;1644480;85;25861;-88
2021/01/27 10:03:41;;;;;;;29.87;15.90;;;;;;;0.77;79.31;99792.75;1645733;85;25370;-86
2021/01/27 10:06:45;;;;;;;21.12;10.13;;;;;;;0.82;79.40;99799.17;1644138;85;26433;-86
2021/01/27 10:09:26;;;;;;;13.90;7.72;;;;;;;0.84;79.25;99797.76;1643435;85;25868;-85
2021/01/27 10:12:03;;;;;;;15.28;8.13;;;;;;;0.83;79.10;99792.27;1643588;86;25442;-85
2021/01/27 10:14:37;;;;;;;14.40;8.08;;;;;;;0.82;79.17;99785.50;1643518;85;25877;-85
2021/01/27 10:17:07;;;;;;;15.20;8.18;;;;;;;0.82;79.01;99788.89;1642682;86;25861;-85
2021/01/27 10:19:44;;;;;;;15.83;8.63;;;;;;;0.82;78.70;99798.36;1648334;85;25723;-86
2021/01/27 10:22:11;;;;;;;13.85;8.35;;;;;;;0.81;78.85;99794.14;1641724;85;26032;-86
2021/01/27 10:24:48;;;;;;;12.88;7.12;;;;;;;0.81;78.91;99796.70;1650570;84;25835;-86
2021/01/27 10:27:35;;;;;;;15.38;7.70;;;;;;;0.81;78.61;99793.66;1659853;84;26343;-87
2021/01/27 10:30:19;;;;;;;13.28;7.65;;;;;;;0.85;78.93;99798.13;1659976;84;25976;-87
2021/01/27 10:32:46;;;;;;;11.65;6.22;;;;;;;0.88;78.79;99797.42;1663888;84;25714;-87
2021/01/27 10:35:32;;;;;;;10.05;5.67;;;;;;;0.90;78.74;99792.17;1659039;84;25883;-87
2021/01/27 10:38:12;;;;;;;11.03;5.70;;;;;;;0.91;78.77;99796.37;1660824;84;26043;-87
2021/01/27 10:40:38;;;;;;;10.82;6.25;;;;;;;0.96;78.94;99794.73;1660041;84;25885;-87
2021/01/27 10:43:15;;;;;;;11.18;6.67;;;;;;;1.00;78.83;99799.52;1662510;84;25856;-87
2021/01/27 10:45:44;;;;;;;12.60;6.78;;;;;;;1.04;78.79;99791.92;1661930;84;25777;-88
2021/01/27 10:48:21;;;;;;;12.53;6.40;;;;;;;1.02;78.46;99793.78;1659745;84;25823;-87
2021/01/27 10:50:52;;;;;;;11.75;6.42;;;;;;;1.03;78.33;99797.17;1661112;84;25820;-88
2021/01/27 10:53:20;;;;;;;13.43;6.55;;;;;;;1.03;78.22;99795.41;1661268;84;25357;-89
2021/01/27 10:55:54;;;;;;;11.35;5.55;;;;;;;1.05;78.35;99789.69;1661254;84;25464;-88
2021/01/27 10:58:21;;;;;;;9.48;5.50;;;;;;;1.06;78.06;99799.50;1660612;84;25951;-88
2021/01/27 11:00:48;;;;;;;10.43;6.22;;;;;;;1.07;78.02;99799.41;1661703;84;25372;-87
2021/01/27 11:03:14;;;;;;;9.00;7.17;;;;;;;1.08;77.91;99794.59;1662430;84;26090;-88
2021/01/27 11:05:41;;;;;;;9.83;5.55;;;;;;;1.08;77.68;99795.88;1661574;84;25811;-88
2021/01/27 11:08:11;;;;;;;9.10;5.75;;;;;;;1.09;77.63;99794.13;1660254;84;25589;-87
2021/01/27 11:10:38;;;;;;;9.38;5.90;;;;;;;1.09;77.31;99796.25;1661013;84;25889;-87
2021/01/27 11:13:05;;;;;;;9.33;5.70;;;;;;;1.10;77.86;99791.44;1660522;84;25356;-89
2021/01/27 11:15:32;;;;;;;12.03;6.47;;;;;;;1.14;77.78;99792.48;1659185;84;25916;-88
2021/01/27 11:17:58;;;;;;;9.73;6.00;;;;;;;1.17;77.87;99785.81;1661351;84;25895;-88
2021/01/27 11:20:26;;;;;;;9.85;7.08;;;;;;;1.18;77.50;99792.62;1663923;84;25880;-88
2021/01/27 11:22:54;;;;;;;11.48;6.40;;;;;;;1.20;77.78;99788.14;1660867;84;25883;-88
2021/01/27 11:25:24;;;;;;;10.30;5.87;;;;;;;1.22;77.54;99793.53;1652415;84;25905;-86
2021/01/27 11:27:51;;;;;;;9.40;5.97;;;;;;;1.22;77.40;99803.01;1643311;86;26405;-87
2021/01/27 11:30:23;;;;;;;13.15;6.92;;;;;;;1.21;76.76;99797.52;1644547;85;25905;-87
2021/01/27 11:32:49;;;;;;;12.13;7.00;;;;;;;1.19;77.24;99796.81;1644535;85;26433;-87
2021/01/27 11:35:17;;;;;;;8.60;5.75;;;;;;;1.20;77.18;99800.57;1645098;85;25656;-88
2021/01/27 11:37:44;;;;;;;8.53;6.05;;;;;;;1.19;76.89;99811.78;1643698;85;26094;-86
2021/01/27 11:40:13;;;;;;;11.10;5.60;;;;;;;1.18;76.74;99804.20;1644733;85;25752;-87
2021/01/27 11:42:39;;;;;;;10.65;5.97;;;;;;;1.17;76.42;99805.93;1625293;85;26626;-87
2021/01/27 11:45:08;;;;;;;14.85;6.53;;;;;;;1.17;76.70;99805.11;1643852;85;25833;-87
2021/01/27 11:47:35;;;;;;;11.53;6.33;;;;;;;1.19;76.50;99808.39;1643347;85;26698;-87
2021/01/27 11:50:05;;;;;;;11.15;6.03;;;;;;;1.18;76.26;99806.77;1645098;85;26066;-86
2021/01/27 11:52:32;;;;;;;10.82;5.87;;;;;;;1.19;76.09;99805.34;1645013;85;25351;-87
2021/01/27 11:54:58;;;;;;;10.45;5.92;;;;;;;1.19;75.89;99808.39;1644054;85;25824;-88
2021/01/27 11:57:25;;;;;;;11.78;6.37;;;;;;;1.21;76.03;99797.52;1625393;87;25801;-88
2021/01/27 11:59:51;;;;;;;9.15;5.10;;;;;;;1.25;75.88;99813.88;1644195;85;25948;-87
2021/01/27 12:02:18;;;;;;;10.90;5.12;;;;;;;1.27;75.55;99817.16;1625281;85;25381;-86
2021/01/27 12:04:44;;;;;;;12.33;5.58;;;;;;;1.28;74.69;99812.38;1643988;85;25469;-87
2021/01/27 12:07:12;;;;;;;12.85;6.25;;;;;;;1.27;75.26;99818.92;1644832;85;25471;-87
2021/01/27 12:09:39;;;;;;;8.98;5.75;;;;;;;1.28;74.67;99811.53;1644656;85;25877;-87
2021/01/27 12:12:07;;;;;;;9.53;5.12;;;;;;;1.26;73.96;99809.58;1644091;85;25612;-87
2021/01/27 12:14:35;;;;;;;9.75;5.35;;;;;;;1.25;74.19;99812.59;1622619;86;26525;-87